Time;durP1;ratioP1;P1;durP2;ratioP2;P2;SDS_P1;SDS_P2;PMS_P1;PMS_P2;Temp;Humidity;BMP_temperature;BMP_pressure;BME280_temperature;BME280_humidity;BME280_pressure;Samples;Min_cycle;Max_cycle;Signal;HPM_P1;HPM_P2
2022/11/15 00:02:09;;;;;;;15.60;11.70;;;5.80;99.90;;;;;;5075199;28;20463;-79
2022/11/15 00:04:36;;;;;;;12.67;10.50;;;5.60;99.90;;;;;;5073398;28;20477;-79
2022/11/15 00:07:03;;;;;;;12.20;9.90;;;5.50;99.90;;;;;;5070171;28;20901;-79
2022/11/15 00:09:30;;;;;;;12.93;10.60;;;5.30;99.90;;;;;;5073132;28;21199;-79
2022/11/15 00:11:56;;;;;;;14.83;10.10;;;5.20;99.90;;;;;;5074836;28;20474;-79
2022/11/15 00:14:25;;;;;;;14.87;10.53;;;5.20;99.90;;;;;;5073492;28;20548;-79
2022/11/15 00:16:52;;;;;;;12.73;10.33;;;5.10;99.90;;;;;;5079685;28;20461;-79
2022/11/15 00:19:19;;;;;;;14.80;10.60;;;5.00;99.90;;;;;;5078135;28;20490;-79
2022/11/15 00:21:46;;;;;;;15.03;10.67;;;4.90;99.90;;;;;;5074880;28;20457;-79
2022/11/15 00:24:12;;;;;;;16.40;9.93;;;4.90;99.90;;;;;;5071201;28;20479;-79
2022/11/15 00:26:39;;;;;;;12.90;11.10;;;4.90;99.90;;;;;;5072618;28;20523;-79
2022/11/15 00:29:06;;;;;;;16.77;10.43;;;4.90;99.90;;;;;;5078081;28;20863;-79
2022/11/15 00:31:35;;;;;;;12.50;9.97;;;4.90;99.90;;;;;;5072577;28;20488;-79
2022/11/15 00:34:02;;;;;;;13.30;10.30;;;4.90;99.90;;;;;;5075534;28;20454;-79
2022/11/15 00:36:29;;;;;;;13.40;10.77;;;4.80;99.90;;;;;;5082095;28;20467;-79
2022/11/15 00:38:56;;;;;;;15.33;10.30;;;4.80;99.90;;;;;;5092845;28;20518;-79
2022/11/15 00:41:23;;;;;;;15.10;11.67;;;4.80;99.90;;;;;;5080020;28;20454;-79
2022/11/15 00:43:49;;;;;;;12.10;10.80;;;4.70;99.90;;;;;;5081329;28;20539;-79
2022/11/15 00:46:16;;;;;;;12.23;10.50;;;4.70;99.90;;;;;;5080625;28;20454;-79
2022/11/15 00:48:45;;;;;;;10.30;7.73;;;4.80;99.90;;;;;;5085450;28;20794;-79
2022/11/15 00:51:12;;;;;;;10.67;8.63;;;4.90;99.90;;;;;;5072736;28;20872;-79
2022/11/15 00:53:38;;;;;;;11.23;9.80;;;4.80;99.90;;;;;;5072182;28;21125;-79
2022/11/15 00:56:06;;;;;;;14.23;9.30;;;4.80;99.90;;;;;;5071330;28;20477;-79
2022/11/15 00:58:33;;;;;;;12.60;9.50;;;4.80;99.90;;;;;;5073647;28;20451;-79
2022/11/15 01:01:07;;;;;;;16.30;10.17;;;4.80;99.90;;;;;;5081469;28;20456;-79
2022/11/15 01:03:35;;;;;;;16.50;10.40;;;4.90;99.90;;;;;;5074576;28;20457;-79
2022/11/15 01:06:03;;;;;;;14.93;10.67;;;5.00;99.90;;;;;;5082439;28;20477;-79
2022/11/15 01:08:31;;;;;;;9.83;8.80;;;4.90;99.90;;;;;;5083223;28;21307;-79
2022/11/15 01:11:02;;;;;;;12.07;8.67;;;5.00;99.90;;;;;;5085087;28;20523;-79
2022/11/15 01:13:31;;;;;;;13.83;9.30;;;5.00;99.90;;;;;;5080626;28;20458;-79
2022/11/15 01:15:58;;;;;;;15.57;8.77;;;4.90;99.90;;;;;;5082877;28;20553;-79
2022/11/15 01:18:25;;;;;;;15.37;8.53;;;4.90;99.90;;;;;;5070634;28;20553;-79
2022/11/15 01:20:52;;;;;;;11.13;9.27;;;5.00;99.90;;;;;;5084460;28;20502;-79
2022/11/15 01:23:20;;;;;;;16.03;11.40;;;5.00;99.90;;;;;;5071386;28;21200;-79
2022/11/15 01:25:47;;;;;;;14.93;11.20;;;5.00;99.90;;;;;;5075255;28;21205;-79
2022/11/15 01:28:14;;;;;;;14.33;9.90;;;5.00;99.90;;;;;;5075729;28;20473;-79
2022/11/15 01:30:41;;;;;;;13.17;9.80;;;4.90;99.90;;;;;;5069681;28;20519;-79
2022/11/15 01:33:08;;;;;;;12.23;9.10;;;4.80;99.90;;;;;;5078461;28;20867;-79
2022/11/15 01:35:39;;;;;;;10.50;8.07;;;4.80;99.90;;;;;;5078583;28;20852;-79
2022/11/15 01:38:06;;;;;;;13.73;9.80;;;4.80;99.90;;;;;;5071010;28;20461;-80
2022/11/15 01:40:35;;;;;;;11.77;8.73;;;4.80;99.90;;;;;;5078260;28;20492;-79
2022/11/15 01:43:20;;;;;;;14.70;8.80;;;4.80;99.90;;;;;;5075160;28;20971;-79
2022/11/15 01:45:51;;;;;;;14.53;8.50;;;4.80;99.90;;;;;;5074785;28;20442;-79
2022/11/15 01:48:18;;;;;;;11.93;9.10;;;4.70;99.90;;;;;;5069360;28;20494;-79
2022/11/15 01:50:45;;;;;;;19.03;10.57;;;4.80;99.90;;;;;;5082442;28;20819;-79
2022/11/15 01:53:13;;;;;;;14.60;10.53;;;4.90;99.90;;;;;;5071074;28;20505;-79
2022/11/15 01:55:41;;;;;;;13.50;9.30;;;4.90;99.90;;;;;;5067553;28;20513;-79
2022/11/15 01:58:08;;;;;;;12.33;9.40;;;4.80;99.90;;;;;;5071031;28;20982;-79
2022/11/15 02:00:36;;;;;;;17.93;9.23;;;4.70;99.90;;;;;;5065646;28;20459;-79
2022/11/15 02:03:03;;;;;;;14.33;9.20;;;4.70;99.90;;;;;;5068044;28;20455;-79
2022/11/15 02:05:32;;;;;;;11.20;9.33;;;4.60;99.90;;;;;;5075630;28;20502;-79
2022/11/15 02:08:01;;;;;;;12.73;9.50;;;4.60;99.90;;;;;;5084292;28;20455;-79
2022/11/15 02:10:29;;;;;;;11.90;9.10;;;4.60;99.90;;;;;;5082058;28;20494;-79
2022/11/15 02:13:00;;;;;;;18.90;10.80;;;4.60;99.90;;;;;;5077013;28;20470;-79
2022/11/15 02:15:35;;;;;;;12.73;8.60;;;4.60;99.90;;;;;;5079330;28;20780;-79
2022/11/15 02:18:14;;;;;;;18.40;10.60;;;4.50;99.90;;;;;;5080120;28;20553;-80
2022/11/15 02:20:55;;;;;;;9.70;8.67;;;4.50;99.90;;;;;;5083893;28;20511;-80
2022/11/15 02:24:07;;;;;;;13.03;8.67;;;4.40;99.90;;;;;;5071418;28;20499;-79
2022/11/15 02:27:07;;;;;;;11.57;8.67;;;4.30;99.90;;;;;;5075417;28;20554;-79
2022/11/15 02:29:56;;;;;;;12.07;9.03;;;4.40;99.90;;;;;;5079324;28;20485;-79
2022/11/15 02:32:31;;;;;;;13.20;7.90;;;4.40;99.90;;;;;;5071688;28;20468;-79
2022/11/15 02:35:06;;;;;;;10.27;7.90;;;4.40;99.90;;;;;;5078138;28;20510;-78
2022/11/15 02:37:40;;;;;;;10.00;7.80;;;4.30;99.90;;;;;;5067991;28;20439;-79
2022/11/15 02:40:12;;;;;;;10.30;7.70;;;4.50;99.90;;;;;;5089031;28;20451;-79
2022/11/15 02:45:36;;;;;;;10.47;8.40;;;4.40;99.90;;;;;;5069613;28;20448;-79
2022/11/15 02:48:07;;;;;;;8.60;7.27;;;4.50;99.90;;;;;;5063562;28;20444;-79
2022/11/15 02:50:34;;;;;;;9.23;7.87;;;4.40;99.90;;;;;;5067702;28;20547;-79
2022/11/15 02:53:01;;;;;;;12.27;8.40;;;4.40;99.90;;;;;;5070562;28;20529;-79
2022/11/15 02:55:30;;;;;;;8.90;6.43;;;4.40;99.90;;;;;;5067328;28;20459;-80
2022/11/15 02:58:20;;;;;;;10.13;8.07;;;4.40;99.90;;;;;;5072663;28;20451;-79
2022/11/15 03:00:53;;;;;;;13.53;7.77;;;4.40;99.90;;;;;;5071121;28;20576;-79
2022/11/15 03:03:41;;;;;;;13.00;9.37;;;4.50;99.90;;;;;;5071697;28;20498;-79
2022/11/15 03:06:18;;;;;;;14.80;9.20;;;4.60;99.90;;;;;;5073355;28;20507;-79
2022/11/15 03:08:55;;;;;;;13.80;9.33;;;4.70;99.90;;;;;;5082725;28;20451;-80
2022/11/15 03:11:24;;;;;;;10.83;8.30;;;4.70;99.90;;;;;;5081264;28;20482;-80
2022/11/15 03:14:02;;;;;;;11.23;8.77;;;4.50;99.90;;;;;;5084408;28;20513;-79
2022/11/15 03:16:35;;;;;;;13.80;9.47;;;4.40;99.90;;;;;;5080490;28;20459;-79
2022/11/15 03:19:09;;;;;;;13.20;10.83;;;4.30;99.90;;;;;;5082627;28;20445;-79
2022/11/15 03:21:40;;;;;;;18.20;11.77;;;4.40;99.90;;;;;;5077539;28;20491;-79
2022/11/15 03:24:09;;;;;;;21.20;13.57;;;4.70;99.90;;;;;;5081033;28;21078;-80
2022/11/15 03:26:39;;;;;;;22.30;14.00;;;4.90;99.90;;;;;;5080884;28;21223;-80
2022/11/15 03:29:14;;;;;;;18.07;14.00;;;4.90;99.90;;;;;;5077942;28;20498;-80
2022/11/15 03:31:49;;;;;;;19.67;14.17;;;5.00;99.90;;;;;;5069822;28;20488;-79
2022/11/15 03:34:25;;;;;;;18.00;13.50;;;5.10;99.90;;;;;;5066728;28;21034;-79
2022/11/15 03:36:53;;;;;;;21.73;14.03;;;5.10;99.90;;;;;;5068856;28;20447;-79
2022/11/15 03:39:21;;;;;;;23.27;13.47;;;5.00;99.90;;;;;;5066407;28;20571;-79
2022/11/15 03:41:54;;;;;;;19.50;12.73;;;5.00;99.90;;;;;;5074390;28;20915;-79
2022/11/15 03:44:35;;;;;;;21.80;13.70;;;4.90;99.90;;;;;;5072849;28;20451;-79
2022/11/15 03:47:07;;;;;;;21.23;14.60;;;4.90;99.90;;;;;;5071622;28;20467;-79
2022/11/15 03:49:38;;;;;;;17.30;14.10;;;4.90;99.90;;;;;;5077821;28;20458;-79
2022/11/15 03:52:06;;;;;;;18.33;14.50;;;4.90;99.90;;;;;;5083332;28;20494;-79
2022/11/15 03:54:33;;;;;;;17.83;12.40;;;4.80;99.90;;;;;;5078524;28;20864;-79
2022/11/15 03:57:00;;;;;;;20.83;14.30;;;4.70;99.90;;;;;;5088617;28;20500;-79
2022/11/15 03:59:27;;;;;;;25.57;14.37;;;4.70;99.90;;;;;;5079145;28;20526;-79
2022/11/15 04:01:54;;;;;;;21.33;13.00;;;4.70;99.90;;;;;;5071135;28;20931;-80
2022/11/15 04:04:21;;;;;;;93.00;24.23;;;4.70;99.90;;;;;;5071445;28;20524;-80
2022/11/15 04:06:49;;;;;;;56.37;17.27;;;4.70;99.90;;;;;;5080056;28;20532;-80
2022/11/15 04:09:16;;;;;;;91.07;18.27;;;4.50;99.90;;;;;;5072527;28;20467;-80
2022/11/15 04:11:43;;;;;;;137.13;32.03;;;4.40;99.90;;;;;;5080122;28;20532;-80
2022/11/15 04:14:10;;;;;;;58.03;19.90;;;4.30;99.90;;;;;;5090650;28;20451;-80
2022/11/15 04:16:37;;;;;;;32.27;14.90;;;4.40;99.90;;;;;;5072472;28;20487;-80
2022/11/15 04:24:35;;;;;;;19.80;13.67;;;4.30;99.90;;;;;;5074270;28;20440;-80
2022/11/15 04:27:02;;;;;;;20.13;13.67;;;4.40;99.90;;;;;;5077867;28;20472;-79
2022/11/15 04:32:12;;;;;;;13.10;11.33;;;4.20;99.90;;;;;;5076656;28;20485;-79
2022/11/15 04:34:39;;;;;;;20.17;12.83;;;4.20;99.90;;;;;;5072686;28;20463;-79
2022/11/15 04:37:13;;;;;;;15.17;11.80;;;4.00;99.90;;;;;;5080639;28;21013;-80
2022/11/15 04:39:41;;;;;;;14.37;11.37;;;3.90;99.90;;;;;;5076801;28;20463;-79
2022/11/15 04:42:09;;;;;;;14.10;11.37;;;3.90;99.90;;;;;;5071778;28;20551;-79
2022/11/15 04:44:36;;;;;;;18.07;13.53;;;4.00;99.90;;;;;;5072027;28;21113;-80
2022/11/15 04:47:03;;;;;;;18.07;13.87;;;4.10;99.90;;;;;;5076512;28;20491;-80
2022/11/15 04:49:30;;;;;;;26.83;16.47;;;4.20;99.90;;;;;;5078423;28;20989;-80
2022/11/15 04:51:57;;;;;;;56.07;21.20;;;4.20;99.90;;;;;;5079096;28;20486;-80
2022/11/15 04:54:25;;;;;;;43.17;19.80;;;4.30;99.90;;;;;;5079750;28;20478;-79
2022/11/15 04:56:52;;;;;;;36.83;20.40;;;4.30;99.90;;;;;;5079637;28;20997;-79
2022/11/15 04:59:19;;;;;;;59.40;22.73;;;4.30;99.90;;;;;;5080772;28;20451;-79
2022/11/15 05:01:46;;;;;;;121.73;35.40;;;4.30;99.90;;;;;;5078591;28;20446;-80
2022/11/15 05:04:21;;;;;;;126.83;31.13;;;4.30;99.90;;;;;;5075549;28;20524;-80
2022/11/15 05:06:50;;;;;;;131.40;37.77;;;4.30;99.90;;;;;;5083131;28;20450;-80
2022/11/15 05:09:17;;;;;;;106.60;32.10;;;4.30;99.90;;;;;;5083196;28;20537;-79
2022/11/15 05:11:46;;;;;;;183.23;36.80;;;4.30;99.90;;;;;;5074630;28;20997;-79
2022/11/15 05:14:13;;;;;;;123.07;35.67;;;4.30;99.90;;;;;;5081176;28;20523;-79
2022/11/15 05:16:40;;;;;;;78.20;28.67;;;4.30;99.90;;;;;;5079072;28;21048;-80
2022/11/15 05:19:08;;;;;;;68.80;26.73;;;4.20;99.90;;;;;;5085183;28;20455;-80
2022/11/15 05:21:35;;;;;;;181.00;41.17;;;4.20;99.90;;;;;;5076748;28;20958;-80
2022/11/15 05:24:02;;;;;;;147.53;38.57;;;4.20;99.90;;;;;;5084899;28;20830;-80
2022/11/15 05:26:29;;;;;;;132.63;35.50;;;4.20;99.90;;;;;;5080206;28;20516;-79
2022/11/15 05:28:59;;;;;;;93.87;27.17;;;4.30;99.90;;;;;;5082392;28;20563;-80
2022/11/15 05:31:27;;;;;;;92.93;33.70;;;4.30;99.90;;;;;;5070735;28;20491;-80
2022/11/15 05:33:55;;;;;;;313.50;56.67;;;4.20;99.90;;;;;;5078763;28;21361;-80
2022/11/15 05:36:30;;;;;;;172.50;43.57;;;4.20;99.90;;;;;;5072906;28;20485;-80
2022/11/15 05:38:57;;;;;;;86.53;29.97;;;4.20;99.90;;;;;;5082497;28;20450;-79
2022/11/15 05:41:30;;;;;;;203.40;55.30;;;4.30;99.90;;;;;;5081899;28;20561;-80
2022/11/15 05:43:59;;;;;;;128.80;32.23;;;4.30;99.90;;;;;;5069080;28;20516;-79
2022/11/15 05:46:26;;;;;;;89.97;27.50;;;4.20;99.90;;;;;;5073369;28;20458;-80
2022/11/15 05:48:54;;;;;;;288.87;54.07;;;4.20;99.90;;;;;;5089452;28;21166;-79
2022/11/15 05:51:23;;;;;;;154.40;38.53;;;4.20;99.90;;;;;;5086977;28;20573;-79
2022/11/15 05:53:52;;;;;;;146.47;35.97;;;4.20;99.90;;;;;;5091032;28;20454;-79
2022/11/15 05:56:19;;;;;;;182.87;45.07;;;4.10;99.90;;;;;;5079237;28;20843;-80
2022/11/15 05:58:46;;;;;;;193.47;44.43;;;4.10;99.90;;;;;;5070212;28;21061;-80
2022/11/15 06:01:15;;;;;;;224.43;54.23;;;4.20;99.90;;;;;;5081125;28;20473;-80
2022/11/15 06:03:42;;;;;;;279.07;49.00;;;4.30;99.90;;;;;;5070657;28;20500;-79
2022/11/15 06:06:09;;;;;;;222.67;51.40;;;4.20;99.90;;;;;;5074990;28;21001;-80
2022/11/15 06:08:36;;;;;;;135.50;34.67;;;4.10;99.90;;;;;;5074576;28;20852;-79
2022/11/15 06:11:06;;;;;;;174.10;39.73;;;4.20;99.90;;;;;;5072181;28;20495;-79
2022/11/15 06:13:34;;;;;;;280.50;62.93;;;4.20;99.90;;;;;;5073602;28;20521;-80
2022/11/15 06:16:01;;;;;;;268.50;50.03;;;4.20;99.90;;;;;;5077165;28;20458;-80
2022/11/15 06:18:32;;;;;;;191.20;43.17;;;4.30;99.90;;;;;;5070344;28;20509;-79
2022/11/15 06:21:00;;;;;;;247.93;49.70;;;4.40;99.90;;;;;;5073526;28;21000;-79
2022/11/15 06:23:27;;;;;;;161.10;38.33;;;4.30;99.90;;;;;;5074679;28;20538;-80
2022/11/15 06:25:54;;;;;;;130.20;37.43;;;4.30;99.90;;;;;;5074711;28;20463;-79
2022/11/15 06:28:21;;;;;;;70.57;27.03;;;4.40;99.90;;;;;;5063873;28;20495;-80
2022/11/15 06:30:48;;;;;;;310.23;54.00;;;4.30;99.90;;;;;;5059336;28;20496;-79
2022/11/15 06:33:15;;;;;;;181.40;38.57;;;4.30;99.90;;;;;;5067790;28;20511;-79
2022/11/15 06:35:43;;;;;;;166.17;41.37;;;4.30;99.90;;;;;;5070370;28;20498;-80
2022/11/15 06:38:11;;;;;;;105.10;32.07;;;4.20;99.90;;;;;;5069488;28;20552;-79
2022/11/15 06:40:39;;;;;;;142.47;37.77;;;4.20;99.90;;;;;;5049672;28;20490;-82
2022/11/15 06:43:08;;;;;;;238.00;52.57;;;4.20;99.90;;;;;;5054122;28;20522;-79
2022/11/15 06:45:35;;;;;;;223.13;46.20;;;4.20;99.90;;;;;;5054036;28;20464;-79
2022/11/15 06:48:02;;;;;;;189.30;54.40;;;4.20;99.90;;;;;;5054385;28;20519;-79
2022/11/15 06:50:29;;;;;;;221.47;61.70;;;4.20;99.90;;;;;;5067740;28;20467;-79
2022/11/15 06:53:02;;;;;;;282.90;85.67;;;4.30;99.90;;;;;;5057632;28;20519;-79
2022/11/15 06:55:30;;;;;;;269.90;83.53;;;4.50;99.90;;;;;;5050778;28;20533;-79
2022/11/15 06:57:57;;;;;;;405.93;108.67;;;4.50;99.90;;;;;;5059523;28;20865;-79
2022/11/15 07:00:24;;;;;;;385.60;98.97;;;4.60;99.90;;;;;;5066174;28;20463;-80
2022/11/15 07:02:51;;;;;;;181.57;88.70;;;4.60;99.90;;;;;;5052829;28;20590;-79
2022/11/15 07:05:18;;;;;;;249.37;78.00;;;4.70;99.90;;;;;;5053651;28;20491;-79
2022/11/15 07:07:53;;;;;;;125.93;38.17;;;4.60;99.90;;;;;;5048686;28;20568;-79
2022/11/15 07:10:23;;;;;;;192.47;49.70;;;4.60;99.90;;;;;;5060105;28;20462;-79
2022/11/15 07:12:51;;;;;;;114.30;38.07;;;4.50;99.90;;;;;;5062959;28;20572;-80
2022/11/15 07:15:19;;;;;;;271.07;50.03;;;4.40;99.90;;;;;;5049569;28;20541;-79
2022/11/15 07:17:46;;;;;;;124.07;33.27;;;4.50;99.90;;;;;;5051485;28;20572;-80
2022/11/15 07:20:14;;;;;;;312.83;54.40;;;4.50;99.90;;;;;;5051511;28;20495;-80
2022/11/15 07:22:41;;;;;;;337.30;56.27;;;4.60;99.90;;;;;;5056174;28;20563;-80
2022/11/15 07:25:09;;;;;;;108.13;34.30;;;4.60;99.90;;;;;;5060309;28;20552;-80
2022/11/15 07:27:37;;;;;;;239.80;65.00;;;4.60;99.90;;;;;;5056403;28;20495;-80
2022/11/15 07:30:06;;;;;;;200.43;62.10;;;4.70;99.90;;;;;;5054042;28;20644;-80
2022/11/15 07:32:33;;;;;;;224.03;46.50;;;4.70;99.90;;;;;;5055225;28;21033;-80
2022/11/15 07:35:00;;;;;;;125.60;40.43;;;4.80;99.90;;;;;;5059748;28;20614;-80
2022/11/15 07:37:27;;;;;;;252.27;53.93;;;4.60;99.90;;;;;;5050486;28;20556;-80
2022/11/15 07:39:54;;;;;;;112.27;40.20;;;4.70;99.90;;;;;;5053987;28;20458;-79
2022/11/15 07:45:08;;;;;;;167.47;36.73;;;4.70;99.90;;;;;;5051335;28;20883;-79
2022/11/15 07:47:35;;;;;;;203.17;49.37;;;4.90;99.90;;;;;;5050137;28;21245;-79
2022/11/15 07:50:02;;;;;;;72.40;32.60;;;4.90;99.90;;;;;;5061648;28;22141;-80
2022/11/15 07:52:29;;;;;;;70.83;27.30;;;5.00;99.90;;;;;;5061146;28;20483;-80
2022/11/15 07:54:56;;;;;;;150.63;50.80;;;5.00;99.90;;;;;;5055904;28;20584;-80
2022/11/15 07:57:23;;;;;;;113.33;37.07;;;5.00;99.90;;;;;;5056603;28;20503;-82
2022/11/15 07:59:50;;;;;;;153.13;35.83;;;5.10;99.90;;;;;;5049852;28;20569;-80
2022/11/15 08:02:18;;;;;;;341.57;54.37;;;5.00;99.90;;;;;;5054818;28;21045;-79
2022/11/15 08:04:45;;;;;;;88.10;32.60;;;5.10;99.90;;;;;;5052438;28;20487;-79
2022/11/15 08:07:12;;;;;;;144.73;35.93;;;5.20;99.90;;;;;;5054439;28;20467;-80
2022/11/15 08:09:39;;;;;;;283.00;63.13;;;5.20;99.90;;;;;;5068251;28;20462;-80
2022/11/15 08:12:06;;;;;;;268.77;55.80;;;5.20;99.90;;;;;;5071920;28;20516;-79
2022/11/15 08:14:33;;;;;;;89.73;26.43;;;5.30;99.90;;;;;;5066464;28;20517;-80
2022/11/15 08:17:00;;;;;;;117.87;32.33;;;5.50;99.90;;;;;;5069249;28;20471;-80
2022/11/15 08:19:29;;;;;;;80.77;29.63;;;5.40;99.90;;;;;;5069119;28;20469;-80
2022/11/15 08:21:56;;;;;;;106.37;28.00;;;5.40;99.90;;;;;;5049074;28;20494;-80
2022/11/15 08:24:23;;;;;;;302.90;60.60;;;5.40;99.90;;;;;;5053006;28;20490;-79
2022/11/15 08:26:50;;;;;;;194.57;41.07;;;5.50;99.90;;;;;;5066468;28;20466;-80
2022/11/15 08:29:17;;;;;;;179.87;39.00;;;5.40;99.90;;;;;;5068167;28;20474;-80
2022/11/15 08:31:45;;;;;;;183.97;39.83;;;5.40;99.90;;;;;;5074808;28;20466;-81
2022/11/15 08:34:12;;;;;;;246.63;44.83;;;5.50;99.90;;;;;;5069822;28;20466;-81
2022/11/15 08:36:40;;;;;;;149.37;34.63;;;5.50;99.90;;;;;;5071537;28;20465;-81
2022/11/15 08:39:07;;;;;;;186.80;40.07;;;5.40;99.90;;;;;;5078188;28;20553;-81
2022/11/15 08:41:36;;;;;;;171.53;39.90;;;5.40;99.90;;;;;;5075146;28;20455;-81
2022/11/15 08:44:03;;;;;;;77.17;29.40;;;5.40;99.90;;;;;;5077887;28;20461;-80
2022/11/15 08:46:30;;;;;;;149.80;38.90;;;5.40;99.90;;;;;;5074168;28;20532;-81
2022/11/15 08:48:57;;;;;;;243.67;45.27;;;5.60;99.90;;;;;;5074098;28;21149;-81
2022/11/15 08:51:24;;;;;;;116.17;26.50;;;5.70;99.90;;;;;;5073686;28;20803;-81
2022/11/15 08:53:53;;;;;;;103.17;31.50;;;5.70;99.90;;;;;;5070805;28;20875;-81
2022/11/15 08:56:20;;;;;;;123.90;27.33;;;5.60;99.90;;;;;;5071366;28;20512;-81
2022/11/15 08:58:47;;;;;;;129.77;30.37;;;5.50;99.90;;;;;;5069487;28;20490;-81
2022/11/15 09:01:20;;;;;;;168.13;33.23;;;5.60;99.90;;;;;;5064021;28;20768;-81
2022/11/15 09:03:47;;;;;;;171.07;38.23;;;5.70;99.90;;;;;;5067935;28;20499;-80
2022/11/15 09:06:14;;;;;;;220.17;44.07;;;5.60;99.90;;;;;;5073859;28;20539;-80
2022/11/15 09:08:42;;;;;;;139.30;30.70;;;5.60;99.90;;;;;;5068473;28;20465;-81
2022/11/15 09:11:12;;;;;;;221.70;40.67;;;5.70;99.90;;;;;;5068128;28;20473;-81
2022/11/15 09:13:39;;;;;;;282.50;50.40;;;5.70;99.90;;;;;;5074918;28;20576;-81
2022/11/15 09:16:06;;;;;;;336.03;63.10;;;5.70;99.90;;;;;;5074709;28;20467;-81
2022/11/15 09:18:33;;;;;;;74.37;21.77;;;5.80;99.90;;;;;;5074108;28;20502;-81
2022/11/15 09:21:02;;;;;;;80.63;25.47;;;5.70;99.90;;;;;;5078076;28;20469;-80
2022/11/15 09:23:29;;;;;;;165.87;34.30;;;5.70;99.90;;;;;;5074926;28;20460;-81
2022/11/15 09:26:01;;;;;;;279.83;51.43;;;5.80;99.90;;;;;;5061636;28;20872;-82
2022/11/15 09:28:29;;;;;;;172.23;36.10;;;5.80;99.90;;;;;;5063418;28;20604;-81
2022/11/15 09:30:59;;;;;;;168.00;33.07;;;5.70;99.90;;;;;;5064478;28;20534;-81
2022/11/15 09:33:27;;;;;;;61.83;25.87;;;5.70;99.90;;;;;;5066341;28;20497;-81
2022/11/15 09:35:54;;;;;;;436.00;68.80;;;5.80;99.90;;;;;;5067286;28;20452;-81
2022/11/15 09:38:21;;;;;;;84.13;25.23;;;5.80;99.90;;;;;;5069484;28;20466;-81
2022/11/15 09:40:52;;;;;;;63.03;20.53;;;5.90;99.90;;;;;;5074013;28;20868;-81
2022/11/15 09:43:37;;;;;;;64.53;24.00;;;5.80;99.90;;;;;;5076850;28;20987;-81
2022/11/15 09:46:16;;;;;;;45.47;19.73;;;5.90;99.90;;;;;;5078460;28;20529;-81
2022/11/15 09:48:52;;;;;;;70.67;21.60;;;6.00;99.90;;;;;;5081859;28;20460;-81
2022/11/15 09:51:27;;;;;;;52.27;19.83;;;6.00;99.90;;;;;;5075571;28;20879;-81
2022/11/15 09:54:04;;;;;;;87.93;26.23;;;6.00;99.90;;;;;;5068799;28;20566;-81
2022/11/15 09:56:36;;;;;;;101.83;26.13;;;6.10;99.90;;;;;;5076182;28;20474;-81
2022/11/15 09:59:24;;;;;;;143.33;31.13;;;6.20;99.90;;;;;;5072656;28;20466;-81
2022/11/15 10:01:59;;;;;;;70.40;22.83;;;6.20;99.90;;;;;;5070032;28;21132;-80
2022/11/15 10:04:27;;;;;;;39.07;20.57;;;6.10;99.90;;;;;;5077344;28;20522;-80
2022/11/15 10:07:02;;;;;;;77.50;30.20;;;6.20;99.90;;;;;;5073797;28;20556;-80
2022/11/15 10:09:37;;;;;;;108.43;28.63;;;6.30;99.90;;;;;;5077994;28;20962;-80
2022/11/15 10:12:04;;;;;;;86.17;28.53;;;6.30;99.90;;;;;;5078026;28;20455;-80
2022/11/15 10:14:33;;;;;;;70.63;24.27;;;6.30;99.90;;;;;;5074649;28;20519;-79
2022/11/15 10:17:41;;;;;;;93.10;25.37;;;6.40;99.90;;;;;;5062342;28;20498;-82
2022/11/15 10:20:15;;;;;;;94.07;26.23;;;6.50;99.90;;;;;;5074263;28;21225;-82
2022/11/15 10:22:46;;;;;;;73.77;25.17;;;6.50;99.90;;;;;;5070940;28;20566;-82
2022/11/15 10:25:20;;;;;;;54.30;18.50;;;6.60;99.90;;;;;;5082703;28;20473;-80
2022/11/15 10:27:54;;;;;;;83.63;21.93;;;6.60;99.90;;;;;;5065420;28;20513;-81
2022/11/15 10:30:23;;;;;;;92.63;23.90;;;6.40;99.90;;;;;;5065986;28;20551;-81
2022/11/15 10:32:50;;;;;;;48.33;17.63;;;6.30;99.90;;;;;;5068331;28;20523;-82
2022/11/15 10:35:23;;;;;;;161.67;28.67;;;6.20;99.90;;;;;;5070609;28;20504;-81
2022/11/15 10:37:50;;;;;;;55.60;19.40;;;6.20;99.90;;;;;;5077272;28;20526;-81
2022/11/15 10:40:21;;;;;;;112.13;21.67;;;6.00;99.90;;;;;;5075832;28;20442;-79
2022/11/15 10:42:48;;;;;;;73.13;20.80;;;6.00;99.90;;;;;;5070333;28;20482;-79
2022/11/15 10:45:29;;;;;;;81.67;21.57;;;6.00;99.90;;;;;;5073824;28;20463;-79
2022/11/15 10:48:23;;;;;;;55.20;19.47;;;5.90;99.90;;;;;;5075274;28;20495;-78
2022/11/15 10:50:52;;;;;;;89.47;22.60;;;5.90;99.90;;;;;;5073861;28;21025;-78
2022/11/15 10:53:28;;;;;;;54.70;15.40;;;5.90;99.90;;;;;;5065100;28;20991;-78
2022/11/15 10:55:58;;;;;;;80.90;23.03;;;5.90;99.90;;;;;;5075293;28;21170;-79
2022/11/15 10:58:33;;;;;;;33.53;14.17;;;5.90;99.90;;;;;;5076574;28;21397;-78
2022/11/15 11:01:13;;;;;;;42.13;17.13;;;5.80;99.90;;;;;;5065242;28;20498;-81
2022/11/15 11:03:41;;;;;;;62.23;17.40;;;6.00;99.90;;;;;;5071016;28;20508;-81
2022/11/15 11:06:11;;;;;;;37.00;20.20;;;6.00;99.90;;;;;;5080242;28;20449;-81
2022/11/15 11:08:39;;;;;;;50.60;16.87;;;6.00;99.90;;;;;;5070997;28;20587;-81
2022/11/15 11:11:07;;;;;;;61.73;17.70;;;6.00;99.90;;;;;;5079130;28;20896;-81
2022/11/15 11:13:36;;;;;;;33.27;15.40;;;6.10;99.90;;;;;;5072969;28;20540;-80
2022/11/15 11:16:22;;;;;;;27.47;16.13;;;6.20;99.90;;;;;;5077883;28;20462;-85
2022/11/15 11:18:58;;;;;;;24.70;13.33;;;6.10;99.90;;;;;;5069861;28;20467;-82
2022/11/15 11:21:32;;;;;;;32.70;15.40;;;6.20;99.90;;;;;;5070972;28;20474;-81
2022/11/15 11:24:05;;;;;;;39.90;16.57;;;6.10;99.90;;;;;;5073318;28;20487;-82
2022/11/15 11:26:41;;;;;;;30.77;15.50;;;6.10;99.90;;;;;;5072060;28;20464;-81
2022/11/15 11:29:24;;;;;;;30.53;13.53;;;6.10;99.90;;;;;;5075392;28;21036;-81
2022/11/15 11:32:00;;;;;;;29.83;16.07;;;6.00;99.90;;;;;;5071688;28;20508;-80
2022/11/15 11:34:41;;;;;;;31.47;14.60;;;5.90;99.90;;;;;;5077006;28;20484;-80
2022/11/15 11:37:15;;;;;;;85.40;20.33;;;5.90;99.90;;;;;;5075371;28;20543;-78
2022/11/15 11:39:53;;;;;;;30.53;15.23;;;5.90;99.90;;;;;;5072564;28;21088;-77
2022/11/15 11:42:31;;;;;;;40.10;14.50;;;5.90;99.90;;;;;;5072212;28;20490;-77
2022/11/15 11:45:07;;;;;;;41.50;16.27;;;6.00;99.90;;;;;;5082776;28;20462;-77
2022/11/15 11:47:41;;;;;;;32.67;14.67;;;6.00;99.90;;;;;;5085253;28;20496;-77
2022/11/15 11:50:15;;;;;;;29.13;13.77;;;6.00;99.90;;;;;;5074509;28;20793;-77
2022/11/15 11:52:49;;;;;;;28.47;13.80;;;6.00;99.90;;;;;;5076695;28;20595;-78
2022/11/15 11:55:20;;;;;;;23.90;12.93;;;5.90;99.90;;;;;;5080116;28;20475;-80
2022/11/15 11:57:51;;;;;;;25.63;14.90;;;6.10;99.90;;;;;;5074059;28;20471;-80
2022/11/15 12:00:20;;;;;;;21.80;13.40;;;6.10;99.90;;;;;;5072896;28;20464;-80
2022/11/15 12:03:01;;;;;;;23.57;14.07;;;6.10;99.90;;;;;;5065758;28;21025;-81
2022/11/15 12:05:33;;;;;;;21.90;13.97;;;6.10;99.90;;;;;;5071362;28;20553;-81
2022/11/15 12:08:05;;;;;;;20.80;12.73;;;6.20;99.90;;;;;;5073040;28;20559;-81
2022/11/15 12:10:35;;;;;;;22.63;14.40;;;6.20;99.90;;;;;;5064712;28;20967;-80
2022/11/15 12:13:08;;;;;;;33.60;15.87;;;6.10;99.90;;;;;;5069185;28;20491;-80
2022/11/15 12:15:43;;;;;;;28.20;16.40;;;6.20;99.90;;;;;;5073543;28;21362;-81
2022/11/15 12:18:15;;;;;;;32.60;15.80;;;6.30;99.90;;;;;;5068501;28;20645;-80
2022/11/15 12:20:53;;;;;;;32.47;15.40;;;6.30;99.90;;;;;;5070701;28;20466;-80
2022/11/15 12:23:24;;;;;;;36.77;17.77;;;6.30;99.90;;;;;;5072371;28;20518;-81
2022/11/15 12:25:55;;;;;;;44.47;16.17;;;6.30;99.90;;;;;;5074493;28;20467;-80
2022/11/15 12:28:32;;;;;;;32.00;15.13;;;6.30;99.90;;;;;;5063827;28;20851;-80
2022/11/15 12:31:05;;;;;;;27.07;15.33;;;6.30;99.90;;;;;;5071970;28;21208;-81
2022/11/15 12:33:40;;;;;;;28.73;16.63;;;6.30;99.90;;;;;;5071767;28;20572;-80
2022/11/15 12:36:11;;;;;;;56.63;17.80;;;6.50;99.90;;;;;;5067144;28;20576;-81
2022/11/15 12:38:57;;;;;;;22.07;14.03;;;6.60;99.90;;;;;;5075162;28;20464;-81
2022/11/15 12:41:26;;;;;;;23.93;14.73;;;6.50;99.90;;;;;;5068407;28;20530;-80
2022/11/15 12:43:54;;;;;;;28.77;14.97;;;6.30;99.90;;;;;;5054409;28;20472;-80
2022/11/15 12:46:25;;;;;;;30.93;13.37;;;6.40;99.90;;;;;;5056963;28;20538;-80
2022/11/15 12:48:58;;;;;;;25.73;13.87;;;6.30;99.90;;;;;;5059606;28;20487;-80
2022/11/15 12:52:05;;;;;;;23.57;13.90;;;6.20;99.90;;;;;;5068176;28;20784;-80
2022/11/15 12:55:00;;;;;;;18.23;12.10;;;6.10;99.90;;;;;;5067764;28;20478;-78
2022/11/15 12:57:32;;;;;;;25.30;13.77;;;6.10;99.90;;;;;;5069099;28;20513;-78
2022/11/15 13:00:03;;;;;;;21.47;11.57;;;6.10;99.90;;;;;;5064953;28;20470;-78
2022/11/15 13:02:32;;;;;;;21.50;13.20;;;6.10;99.90;;;;;;5070857;28;20459;-78
2022/11/15 13:05:35;;;;;;;19.07;12.37;;;6.20;99.90;;;;;;5071023;28;20464;-78
2022/11/15 13:08:04;;;;;;;22.90;12.70;;;6.20;99.90;;;;;;5049606;28;20460;-77